Time;durP1;ratioP1;P1;durP2;ratioP2;P2;SDS_P1;SDS_P2;PMS_P1;PMS_P2;Temp;Humidity;BMP_temperature;BMP_pressure;BME280_temperature;BME280_humidity;BME280_pressure;Samples;Min_cycle;Max_cycle;Signal;HPM_P1;HPM_P2
2024/04/17 00:00:46;;;;;;;;;14.33;12.00;;;;;5.78;100.00;98335.44;6268343;20;3513802;-51
2024/04/17 00:03:15;;;;;;;;;16.80;15.40;;;;;5.97;100.00;98337.78;6324936;20;2812844;-51
2024/04/17 00:05:42;;;;;;;;;13.67;13.67;;;;;6.00;100.00;98339.41;6269497;20;3520263;-53
2024/04/17 00:08:09;;;;;;;;;11.00;11.00;;;;;5.81;100.00;98335.22;6299884;20;2794035;-51
2024/04/17 00:10:35;;;;;;;;;17.00;14.00;;;;;5.84;100.00;98324.38;6273253;20;2808642;-48
2024/04/17 00:13:04;;;;;;;;;16.67;15.83;;;;;5.91;100.00;98325.69;6295389;20;2818202;-50
2024/04/17 00:15:32;;;;;;;;;16.33;14.00;;;;;5.81;100.00;98319.25;6300699;20;2798205;-49
2024/04/17 00:18:00;;;;;;;;;16.33;13.00;;;;;5.92;100.00;98321.22;6301541;20;3529433;-52
2024/04/17 00:20:26;;;;;;;;;16.00;12.00;;;;;5.85;100.00;98330.56;6303463;20;2798197;-51
2024/04/17 00:22:53;;;;;;;;;17.00;14.00;;;;;5.82;100.00;98328.09;6269589;20;2705554;-50
2024/04/17 00:25:20;;;;;;;;;15.33;13.33;;;;;5.86;100.00;98327.78;6271828;20;3532544;-48
2024/04/17 00:27:47;;;;;;;;;14.00;13.00;;;;;5.80;100.00;98328.19;6303196;20;2788854;-46
2024/04/17 00:30:14;;;;;;;;;13.00;13.00;;;;;5.77;100.00;98328.41;6269974;20;2801429;-48
2024/04/17 00:32:41;;;;;;;;;14.00;13.00;;;;;5.85;100.00;98315.44;6299805;20;2789933;-46
2024/04/17 00:35:08;;;;;;;;;13.00;12.00;;;;;5.73;100.00;98310.91;6301675;20;2796205;-49
2024/04/17 00:37:35;;;;;;;;;14.00;12.00;;;;;5.62;100.00;98308.91;6274373;20;2789899;-47
2024/04/17 00:40:02;;;;;;;;;15.00;13.00;;;;;5.73;100.00;98313.56;6272142;20;3527434;-49
2024/04/17 00:42:31;;;;;;;;;16.80;13.00;;;;;5.50;100.00;98315.00;6323896;20;2797303;-46
2024/04/17 00:44:57;;;;;;;;;12.00;12.00;;;;;5.59;100.00;98314.44;6269872;20;2789865;-48
2024/04/17 00:47:25;;;;;;;;;18.00;14.67;;;;;5.69;100.00;98317.38;6268701;20;3538858;-50
2024/04/17 00:49:54;;;;;;;;;12.40;12.20;;;;;5.72;100.00;98301.22;6321276;20;2789936;-46
2024/04/17 00:52:21;;;;;;;;;12.50;11.00;;;;;5.42;100.00;98301.34;6268847;20;2782577;-46
2024/04/17 00:54:49;;;;;;;;;19.33;13.00;;;;;5.54;100.00;98289.06;6268840;20;2798266;-46
2024/04/17 00:57:15;;;;;;;;;12.00;12.00;;;;;5.45;100.00;98280.72;6299930;20;2779536;-49
2024/04/17 00:59:43;;;;;;;;;16.33;14.00;;;;;5.63;100.00;98277.81;6266544;20;3526385;-50
2024/04/17 01:02:13;;;;;;;;;14.20;12.00;;;;;5.44;100.00;98283.47;6321624;20;2796187;-46
2024/04/17 01:04:41;;;;;;;;;15.33;13.67;;;;;5.59;100.00;98279.84;6270051;20;2794133;-48
2024/04/17 01:07:07;;;;;;;;;20.50;16.50;;;;;5.41;100.00;98273.88;6297790;20;2826341;-46
2024/04/17 01:09:37;;;;;;;;;13.71;13.71;;;;;5.55;100.00;98280.97;6309022;20;1827393;-46
2024/04/17 01:12:08;;;;;;;;;15.67;15.67;;;;;5.58;100.00;98277.25;6303647;20;3535788;-46
2024/04/17 01:14:34;;;;;;;;;12.00;12.00;;;;;5.60;100.00;98273.53;6304018;20;2784696;-46
2024/04/17 01:17:03;;;;;;;;;17.20;14.00;;;;;5.57;100.00;98280.88;6298178;20;2804638;-47
2024/04/17 01:19:31;;;;;;;;;15.00;14.00;;;;;5.62;100.00;98282.28;6272712;20;3535719;-46
2024/04/17 01:21:58;;;;;;;;;22.33;14.00;;;;;5.49;100.00;98286.69;6303132;20;3558757;-49
2024/04/17 01:24:25;;;;;;;;;14.00;14.00;;;;;5.43;100.00;98287.94;6304236;20;2788856;-48
2024/04/17 01:26:52;;;;;;;;;20.33;16.33;;;;;5.50;100.00;98289.28;6273257;20;3551526;-46
2024/04/17 01:29:19;;;;;;;;;16.00;16.00;;;;;5.53;100.00;98282.03;6306266;20;2816946;-48
2024/04/17 01:31:46;;;;;;;;;16.33;13.67;;;;;5.38;100.00;98276.72;6273949;20;3528577;-46
2024/04/17 01:34:13;;;;;;;;;16.67;16.33;;;;;5.39;100.00;98270.44;6305141;20;3553556;-46
2024/04/17 01:36:41;;;;;;;;;18.00;14.00;;;;;5.43;100.00;98266.66;6305293;20;3548172;-45
2024/04/17 01:39:07;;;;;;;;;18.50;18.00;;;;;5.27;100.00;98263.25;6307830;20;2840927;-46
2024/04/17 01:41:35;;;;;;;;;17.33;14.67;;;;;5.37;100.00;98255.53;6274203;20;3537811;-46
2024/04/17 01:44:01;;;;;;;;;17.00;15.00;;;;;5.40;100.00;98242.91;6305587;20;2816058;-48
2024/04/17 01:46:29;;;;;;;;;17.00;15.33;;;;;5.41;100.00;98247.25;6273993;20;3554420;-46
2024/04/17 01:48:55;;;;;;;;;18.50;16.00;;;;;5.44;100.00;98241.72;6305118;20;2815922;-49
2024/04/17 01:51:22;;;;;;;;;21.00;17.00;;;;;5.54;100.00;98243.81;6274938;20;2825479;-46
2024/04/17 01:53:50;;;;;;;;;17.33;16.67;;;;;5.55;100.00;98246.38;6261291;20;3554541;-46
2024/04/17 01:56:17;;;;;;;;;24.00;18.00;;;;;5.64;100.00;98235.13;6301024;20;3563785;-48
2024/04/17 01:58:44;;;;;;;;;14.00;13.00;;;;;5.58;100.00;98230.22;6302545;20;3550363;-47
2024/04/17 02:01:11;;;;;;;;;22.00;20.00;;;;;5.50;100.00;98230.72;6305563;20;2833684;-49
2024/04/17 02:03:38;;;;;;;;;18.00;16.00;;;;;5.52;100.00;98227.09;6274053;20;3560692;-45
2024/04/17 02:06:05;;;;;;;;;20.50;19.00;;;;;5.35;100.00;98226.38;6304328;20;2826405;-48
2024/04/17 02:08:33;;;;;;;;;18.67;16.33;;;;;5.46;100.00;98229.19;6270984;20;3555507;-46
2024/04/17 02:11:00;;;;;;;;;18.33;16.67;;;;;5.50;100.00;98225.38;6272802;20;3557553;-48
2024/04/17 02:13:27;;;;;;;;;20.50;15.00;;;;;5.62;100.00;98223.72;6300916;20;2475314;-52
2024/04/17 02:15:59;;;;;;;;;17.00;13.00;;;;;5.59;100.00;98226.59;6276433;20;2802402;-46
2024/04/17 02:18:27;;;;;;;;;25.33;19.00;;;;;5.41;100.00;98231.28;6270688;20;3569000;-46
2024/04/17 02:20:53;;;;;;;;;17.00;16.00;;;;;5.52;100.00;98237.72;6272617;20;2811883;-47
2024/04/17 02:23:21;;;;;;;;;17.67;16.67;;;;;5.50;100.00;98248.47;6272062;20;3555483;-45
2024/04/17 02:25:47;;;;;;;;;18.00;18.00;;;;;5.54;100.00;98246.47;6273672;20;2827358;-46
2024/04/17 02:28:15;;;;;;;;;17.00;15.33;;;;;5.58;100.00;98253.28;6269367;20;3543221;-47
2024/04/17 02:30:42;;;;;;;;;19.00;18.00;;;;;5.49;100.00;98260.06;6304397;20;2829483;-45
2024/04/17 02:33:09;;;;;;;;;19.00;19.00;;;;;5.67;100.00;98256.22;6271465;20;3560763;-47
2024/04/17 02:35:36;;;;;;;;;18.00;16.00;;;;;5.58;100.00;98266.59;6303294;20;2481598;-48
2024/04/17 02:38:03;;;;;;;;;18.00;17.00;;;;;5.47;100.00;98276.13;6272144;20;3558677;-51
2024/04/17 02:40:31;;;;;;;;;17.33;16.33;;;;;5.46;100.00;98274.44;6303783;20;3538882;-47
2024/04/17 02:42:57;;;;;;;;;20.50;16.00;;;;;5.38;100.00;98274.06;6303767;20;2817055;-47
2024/04/17 02:45:25;;;;;;;;;17.33;13.00;;;;;5.37;100.00;98264.38;6271192;20;3560794;-48
2024/04/17 02:47:53;;;;;;;;;18.60;15.00;;;;;5.50;100.00;98261.78;6325412;20;2827579;-49
2024/04/17 02:50:21;;;;;;;;;17.33;16.33;;;;;5.46;100.00;98260.28;6272071;20;3565926;-47
2024/04/17 02:52:47;;;;;;;;;17.00;17.00;;;;;5.56;100.00;98250.75;6303346;20;2823259;-48
2024/04/17 02:55:16;;;;;;;;;14.80;14.80;;;;;5.45;100.00;98248.78;6295263;20;2812907;-47
2024/04/17 02:57:42;;;;;;;;;12.00;12.00;;;;;5.41;100.00;98254.38;6271871;20;2777927;-47
2024/04/17 03:00:11;;;;;;;;;20.00;15.00;;;;;5.47;100.00;98257.50;6270268;20;3563985;-49
2024/04/17 03:02:38;;;;;;;;;16.50;16.00;;;;;5.28;100.00;98257.81;6304139;20;2808739;-47
2024/04/17 03:05:05;;;;;;;;;18.33;17.00;;;;;5.39;100.00;98250.97;6274233;20;3540012;-46
2024/04/17 03:07:33;;;;;;;;;13.00;13.00;;;;;5.29;100.00;98258.66;6299882;20;2792219;-46
2024/04/17 03:10:01;;;;;;;;;13.80;13.80;;;;;5.58;100.00;98272.81;6325469;20;2811730;-45
2024/04/17 03:12:28;;;;;;;;;14.67;13.33;;;;;5.23;100.00;98264.38;6270683;20;3542988;-46
2024/04/17 03:14:57;;;;;;;;;14.60;14.60;;;;;5.38;100.00;98257.25;6326968;20;2809760;-46
2024/04/17 03:17:24;;;;;;;;;16.50;14.00;;;;;5.41;100.00;98265.88;6270787;20;2810775;-46
2024/04/17 03:19:52;;;;;;;;;17.20;13.60;;;;;4.98;100.00;98255.28;6293164;20;2800316;-46
2024/04/17 03:22:21;;;;;;;;;14.00;13.00;;;;;5.37;100.00;98256.41;6298210;20;2799252;-46
2024/04/17 03:24:51;;;;;;;;;17.67;13.00;;;;;5.38;100.00;98246.59;6271375;20;3533586;-46
2024/04/17 03:27:18;;;;;;;;;16.50;13.50;;;;;5.44;100.00;98247.06;6299302;20;2798254;-47
2024/04/17 03:29:46;;;;;;;;;25.00;25.00;;;;;5.39;100.00;98246.50;6268580;20;2849691;-50
2024/04/17 03:32:12;;;;;;;;;15.00;12.00;;;;;5.37;100.00;98247.53;6273567;20;2783686;-47
2024/04/17 03:34:41;;;;;;;;;11.40;11.40;;;;;5.23;100.00;98235.13;6296886;20;2792035;-46
2024/04/17 03:37:11;;;;;;;;;11.40;10.00;;;;;5.38;100.00;98238.63;6297251;20;2757660;-48
2024/04/17 03:39:39;;;;;;;;;11.50;11.50;;;;;5.39;100.00;98237.66;6295734;20;2811900;-48
2024/04/17 03:42:06;;;;;;;;;16.50;12.00;;;;;5.28;100.00;98235.69;6300188;20;2798212;-47
2024/04/17 03:44:32;;;;;;;;;14.00;13.00;;;;;5.32;100.00;98225.69;6272663;20;2794083;-47
2024/04/17 03:46:59;;;;;;;;;7.00;6.00;;;;;5.38;100.00;98231.47;6276060;20;2728416;-49
2024/04/17 03:49:26;;;;;;;;;10.00;10.00;;;;;5.40;100.00;98224.25;6299956;20;2775318;-49
2024/04/17 03:51:53;;;;;;;;;10.50;10.50;;;;;5.32;100.00;98223.91;6292250;20;1813908;-46
2024/04/17 03:54:19;;;;;;;;;13.00;12.50;;;;;5.16;100.00;98225.81;6272296;20;2789967;-49
2024/04/17 03:56:48;;;;;;;;;12.00;12.00;;;;;5.10;100.00;98223.53;6295091;20;2792008;-47
2024/04/17 03:59:14;;;;;;;;;13.00;10.50;;;;;5.14;100.00;98227.72;6269611;20;2788956;-47
2024/04/17 04:01:41;;;;;;;;;13.50;12.50;;;;;4.96;100.00;98225.25;6269117;20;2805627;-46
2024/04/17 04:04:09;;;;;;;;;15.20;13.00;;;;;5.17;100.00;98230.19;6295326;20;2803403;-48
2024/04/17 04:06:38;;;;;;;;;12.00;11.00;;;;;5.12;100.00;98221.66;6296981;20;2786760;-47
2024/04/17 04:09:04;;;;;;;;;12.50;11.00;;;;;5.35;100.00;98222.84;6269447;20;2785795;-46
2024/04/17 04:11:33;;;;;;;;;12.20;10.80;;;;;5.31;100.00;98224.84;6295360;20;2788928;-47
2024/04/17 04:13:59;;;;;;;;;12.50;12.00;;;;;5.17;100.00;98222.22;6269425;20;2797170;-49
2024/04/17 04:16:26;;;;;;;;;15.50;13.00;;;;;5.26;100.00;98229.59;6270081;20;2811817;-46
2024/04/17 04:18:53;;;;;;;;;11.00;11.00;;;;;5.19;100.00;98236.28;6268681;20;2784729;-46
2024/04/17 04:21:21;;;;;;;;;12.60;11.80;;;;;5.27;100.00;98234.84;6296242;20;2784770;-48
2024/04/17 04:23:48;;;;;;;;;10.50;10.50;;;;;5.29;100.00;98242.69;6271979;20;2779576;-47
2024/04/17 04:26:17;;;;;;;;;11.80;10.60;;;;;5.06;100.00;98241.50;6296901;20;2786738;-46
2024/04/17 04:28:47;;;;;;;;;11.50;11.50;;;;;5.27;100.00;98239.31;6268279;20;2795749;-46
2024/04/17 04:31:16;;;;;;;;;10.60;10.40;;;;;5.35;100.00;98242.34;6297968;20;2787807;-45
2024/04/17 04:33:42;;;;;;;;;11.00;11.00;;;;;5.34;100.00;98251.25;6268048;20;2781659;-46
2024/04/17 04:36:09;;;;;;;;;10.00;10.00;;;;;5.15;100.00;98250.72;6269212;20;2796126;-45
2024/04/17 04:38:35;;;;;;;;;9.00;9.00;;;;;5.17;100.00;98254.97;6269050;20;2771554;-45
2024/04/17 04:41:04;;;;;;;;;12.80;11.60;;;;;5.39;100.00;98248.31;6293978;20;2785941;-47
2024/04/17 04:43:30;;;;;;;;;12.50;11.00;;;;;5.55;100.00;98250.84;6273941;20;2794040;-46
2024/04/17 04:46:00;;;;;;;;;7.17;7.17;;;;;5.45;100.00;98242.56;6320423;20;1802441;-47
2024/04/17 04:48:26;;;;;;;;;11.00;11.00;;;;;5.53;100.00;98242.09;6276641;20;2786735;-44
2024/04/17 04:50:53;;;;;;;;;9.00;8.00;;;;;5.69;100.00;98250.81;6278098;20;2745260;-45
2024/04/17 04:53:19;;;;;;;;;9.00;9.00;;;;;6.23;100.00;98250.81;6274586;20;2754447;-46
2024/04/17 04:55:57;;;;;;;;;7.00;7.00;;;;;6.95;100.00;98253.91;6277033;20;2746130;-45
2024/04/17 04:58:24;;;;;;;;;12.00;11.00;;;;;6.29;100.00;98261.09;6273481;20;2789924;-45
2024/04/17 05:00:52;;;;;;;;;7.00;7.00;;;;;6.65;100.00;98266.69;6292542;20;1812897;-46
2024/04/17 05:03:22;;;;;;;;;10.80;9.80;;;;;6.48;100.00;98273.19;6328102;20;2742004;-46
2024/04/17 05:05:48;;;;;;;;;8.00;8.00;;;;;6.72;100.00;98268.84;6309241;20;2731671;-48
2024/04/17 05:08:18;;;;;;;;;8.50;8.00;;;;;6.79;100.00;98263.91;6345593;20;1819611;-49
2024/04/17 05:10:46;;;;;;;;;13.50;9.75;;;;;7.30;100.00;98271.91;6294558;20;1816562;-49
2024/04/17 05:13:12;;;;;;;;;11.00;11.00;;;;;7.63;100.00;98271.28;6304469;20;2783735;-46
2024/04/17 05:15:39;;;;;;;;;9.50;8.00;;;;;7.30;100.00;98271.06;6274004;20;2750336;-47
2024/04/17 05:18:06;;;;;;;;;15.00;13.00;;;;;6.94;100.00;98268.19;6274881;20;2804458;-47
2024/04/17 05:20:33;;;;;;;;;9.50;8.00;;;;;7.33;100.00;98269.03;6293154;20;1810812;-47
2024/04/17 05:23:00;;;;;;;;;12.00;10.00;;;;;8.52;100.00;98270.09;6306270;20;2786736;-46
2024/04/17 05:25:27;;;;;;;;;10.50;7.50;;;;;7.42;100.00;98267.50;6275521;20;2758611;-48
2024/04/17 05:27:53;;;;;;;;;9.50;8.00;;;;;7.09;100.00;98260.94;6274860;20;2746200;-48
2024/04/17 05:30:20;;;;;;;;;7.00;7.00;;;;;7.15;100.00;98255.16;6274129;20;2746117;-47
2024/04/17 05:32:47;;;;;;;;;9.50;9.00;;;;;7.43;100.00;98261.22;6274511;20;2746115;-46
2024/04/17 05:35:13;;;;;;;;;8.00;7.00;;;;;7.48;100.00;98267.09;6276837;20;2735760;-46
2024/04/17 05:37:40;;;;;;;;;9.00;7.00;;;;;6.91;100.00;98268.41;6273031;20;2747136;-46
2024/04/17 05:40:08;;;;;;;;;8.00;8.00;;;;;6.90;100.00;98266.72;6292884;20;1802556;-47
2024/04/17 05:42:35;;;;;;;;;9.00;9.00;;;;;6.98;100.00;98268.84;6306968;20;2743027;-50
2024/04/17 05:45:01;;;;;;;;;8.00;8.00;;;;;6.68;100.00;98256.66;6275265;20;2744121;-47
2024/04/17 05:47:28;;;;;;;;;6.50;6.50;;;;;7.44;100.00;98266.44;6307722;20;2736745;-48
2024/04/17 05:49:56;;;;;;;;;9.40;9.00;;;;;7.48;100.00;98272.44;6330027;20;2754580;-46
2024/04/17 05:52:22;;;;;;;;;9.00;8.50;;;;;7.44;100.00;98278.94;6273327;20;2755485;-47
2024/04/17 05:54:50;;;;;;;;;8.00;8.00;;;;;7.30;100.00;98285.25;6293561;20;1812989;-47
2024/04/17 05:57:18;;;;;;;;;10.60;10.40;;;;;8.06;100.00;98294.91;6327302;20;2783628;-48
2024/04/17 05:59:45;;;;;;;;;11.50;11.50;;;;;8.01;100.00;98291.72;6273794;20;2792441;-46
2024/04/17 06:02:11;;;;;;;;;11.00;11.00;;;;;7.97;100.00;98284.03;6273761;20;2791987;-46
2024/04/17 06:04:40;;;;;;;;;11.40;9.80;;;;;8.12;100.00;98294.44;6299207;20;2786848;-47
2024/04/17 06:07:07;;;;;;;;;11.33;11.33;;;;;8.09;100.00;98294.66;6273776;20;2786764;-48
2024/04/17 06:09:36;;;;;;;;;11.80;11.80;;;;;7.91;100.00;98282.66;6329050;20;2794044;-47
2024/04/17 06:12:05;;;;;;;;;11.40;11.40;;;;;8.44;100.00;98299.25;6300538;20;2806585;-48
2024/04/17 06:14:31;;;;;;;;;12.00;10.00;;;;;8.37;100.00;98292.59;6274181;20;2787788;-47
2024/04/17 06:17:00;;;;;;;;;12.00;12.00;;;;;8.20;100.00;98288.53;6299617;20;2794221;-47
2024/04/17 06:19:27;;;;;;;;;13.67;11.00;;;;;8.22;100.00;98294.63;6273605;20;2790964;-46
2024/04/17 06:21:54;;;;;;;;;13.00;13.00;;;;;7.96;100.00;98288.53;6305952;20;2811878;-48
2024/04/17 06:24:20;;;;;;;;;13.50;12.50;;;;;8.17;100.00;98285.25;6277513;20;2811823;-49
2024/04/17 06:26:47;;;;;;;;;8.50;8.50;;;;;8.82;100.00;98292.81;6277463;20;2750296;-46
2024/04/17 06:29:15;;;;;;;;;12.80;12.80;;;;;8.86;100.00;98283.56;6297187;20;2794088;-46
2024/04/17 06:31:42;;;;;;;;;10.00;10.00;;;;;8.81;100.00;98280.38;6274763;20;2779555;-48
2024/04/17 06:34:11;;;;;;;;;11.80;11.20;;;;;8.91;100.00;98276.03;6331222;20;2784686;-46
2024/04/17 06:36:39;;;;;;;;;10.00;9.40;;;;;8.79;100.00;98279.66;6300343;20;2780540;-48
2024/04/17 06:39:06;;;;;;;;;12.00;8.50;;;;;8.88;100.00;98276.28;6273352;20;2770281;-47
2024/04/17 06:41:33;;;;;;;;;11.50;10.50;;;;;8.79;100.00;98272.50;6274361;20;2784691;-47
2024/04/17 06:44:01;;;;;;;;;10.80;9.40;;;;;9.05;98.35;98274.94;6298642;20;2777396;-46
2024/04/17 06:46:28;;;;;;;;;8.00;8.00;;;;;9.45;94.36;98270.00;6277689;20;2736719;-48
2024/04/17 06:48:54;;;;;;;;;8.00;7.00;;;;;9.89;88.77;98270.91;6306061;20;2734732;-46
2024/04/17 06:51:23;;;;;;;;;9.00;9.00;;;;;9.63;89.71;98266.81;6297150;20;2746121;-47
2024/04/17 06:53:49;;;;;;;;;10.00;8.00;;;;;9.43;90.94;98263.91;6306573;20;2763235;-46
2024/04/17 06:56:18;;;;;;;;;9.60;8.40;;;;;9.13;90.83;98260.97;6297598;20;2757582;-47
2024/04/17 06:58:46;;;;;;;;;10.00;10.00;;;;;9.43;92.57;98250.50;6299588;20;2788941;-47
2024/04/17 07:01:13;;;;;;;;;9.00;8.50;;;;;9.96;90.38;98251.66;6273596;20;2747159;-49
2024/04/17 07:03:41;;;;;;;;;9.80;9.80;;;;;9.80;89.54;98249.38;6297809;20;2768074;-45
2024/04/17 07:06:08;;;;;;;;;8.00;8.00;;;;;10.66;85.00;98245.75;6271799;20;2747152;-46
2024/04/17 07:08:35;;;;;;;;;10.33;10.00;;;;;10.33;86.72;98246.78;6273897;20;2787928;-47
2024/04/17 07:11:02;;;;;;;;;9.50;9.00;;;;;10.11;87.15;98242.34;6310736;20;2762786;-47
2024/04/17 07:13:28;;;;;;;;;11.00;9.00;;;;;10.33;87.61;98244.13;6274926;20;2769140;-48
2024/04/17 07:15:56;;;;;;;;;9.00;9.00;;;;;10.27;87.73;98240.13;6268764;20;2750350;-46
2024/04/17 07:18:24;;;;;;;;;8.50;8.00;;;;;10.30;88.15;98233.66;6268916;20;2753569;-46
2024/04/17 07:20:51;;;;;;;;;12.00;10.50;;;;;9.48;89.40;98230.53;6273310;20;2789292;-45
2024/04/17 07:23:18;;;;;;;;;11.00;9.00;;;;;9.59;94.70;98231.38;6275264;20;2776333;-47
2024/04/17 07:25:45;;;;;;;;;9.00;9.00;;;;;9.90;91.34;98226.19;6273754;20;2739950;-45
2024/04/17 07:28:11;;;;;;;;;9.00;9.00;;;;;10.06;90.81;98217.75;6272440;20;2744085;-46
2024/04/17 07:30:42;;;;;;;;;11.00;9.00;;;;;10.03;88.59;98218.84;6271825;20;2782676;-49
2024/04/17 07:33:08;;;;;;;;;11.00;11.00;;;;;10.12;86.81;98206.50;6276578;20;2791971;-50
2024/04/17 07:35:40;;;;;;;;;11.40;9.80;;;;;10.59;85.25;98212.41;6297003;20;2778505;-49
2024/04/17 07:38:07;;;;;;;;;5.00;5.00;;;;;10.57;87.81;98214.34;6280043;20;2736882;-47
2024/04/17 07:40:33;;;;;;;;;8.00;8.00;;;;;11.22;80.86;98215.00;6275453;20;2752448;-46
2024/04/17 07:43:03;;;;;;;;;8.50;8.50;;;;;11.12;77.66;98214.97;6318562;20;3464848;-46
2024/04/17 07:45:30;;;;;;;;;7.50;7.50;;;;;11.16;76.06;98205.66;6308311;20;2735763;-46
2024/04/17 07:47:56;;;;;;;;;10.00;8.50;;;;;11.70;78.94;98211.63;6275540;20;2766080;-48
2024/04/17 07:50:23;;;;;;;;;9.00;9.00;;;;;12.04;76.66;98213.97;6276723;20;2741012;-47
2024/04/17 07:52:50;;;;;;;;;6.50;6.50;;;;;10.88;75.56;98201.84;6276122;20;2746153;-46
2024/04/17 07:55:17;;;;;;;;;6.50;6.50;;;;;11.43;75.92;98209.56;6276055;20;2743003;-45
2024/04/17 07:57:43;;;;;;;;;5.50;5.50;;;;;11.59;78.11;98199.16;6276589;20;2731560;-48
2024/04/17 08:00:11;;;;;;;;;5.00;5.00;;;;;12.03;73.80;98193.44;6276309;20;2748296;-48
2024/04/17 08:02:45;;;;;;;;;5.00;5.00;;;;;11.95;71.13;98191.44;6316357;20;1793060;-48
2024/04/17 08:05:12;;;;;;;;;5.00;4.50;;;;;11.54;71.22;98185.28;6307368;20;2749263;-47
2024/04/17 08:07:39;;;;;;;;;5.00;5.00;;;;;11.41;70.99;98190.88;6274968;20;2738811;-50
2024/04/17 08:10:05;;;;;;;;;5.00;5.00;;;;;11.60;71.67;98192.78;6273282;20;2748326;-50
2024/04/17 08:12:36;;;;;;;;;5.50;5.50;;;;;11.85;69.11;98198.66;6272037;20;2748624;-48
2024/04/17 08:15:03;;;;;;;;;3.00;3.00;;;;;11.90;69.92;98203.63;6275975;20;2736861;-49
2024/04/17 08:17:30;;;;;;;;;6.00;5.00;;;;;12.03;70.58;98199.69;6271625;20;2732705;-50
2024/04/17 08:19:58;;;;;;;;;4.00;4.00;;;;;12.29;68.58;98199.09;6254740;20;2745237;-51
2024/04/17 08:22:25;;;;;;;;;4.00;3.00;;;;;11.50;69.45;98193.75;6273936;20;2737854;-53
2024/04/17 08:24:52;;;;;;;;;4.50;4.50;;;;;11.47;68.13;98192.16;6273550;20;2741970;-51
2024/04/17 08:27:19;;;;;;;;;3.50;3.50;;;;;10.94;69.80;98197.75;6271900;20;2745212;-49
2024/04/17 08:29:45;;;;;;;;;4.50;4.50;;;;;10.96;71.62;98193.13;6270471;20;2739941;-48
2024/04/17 08:32:12;;;;;;;;;4.00;3.50;;;;;11.14;71.72;98198.72;6268402;20;2755679;-53
2024/04/17 08:34:38;;;;;;;;;7.00;7.00;;;;;11.81;69.59;98200.75;6271899;20;2731562;-47
2024/04/17 08:37:06;;;;;;;;;5.00;5.00;;;;;11.80;67.91;98198.22;6270813;20;2743060;-49
2024/04/17 08:39:32;;;;;;;;;4.00;4.00;;;;;11.96;72.72;98190.47;6271302;20;2752375;-46
2024/04/17 08:42:09;;;;;;;;;5.00;5.00;;;;;11.71;70.82;98193.66;6274112;20;2748234;-50
2024/04/17 08:44:41;;;;;;;;;5.50;5.50;;;;;11.86;71.56;98187.75;6274290;20;2749364;-48
2024/04/17 08:47:10;;;;;;;;;5.00;5.00;;;;;12.04;69.88;98196.00;6273206;20;2747181;-50
2024/04/17 08:49:39;;;;;;;;;4.00;4.00;;;;;11.87;68.93;98185.91;6272717;20;2748225;-46
2024/04/17 08:52:08;;;;;;;;;7.00;6.00;;;;;11.37;69.75;98184.09;6273973;20;2748241;-45
2024/04/17 08:54:35;;;;;;;;;4.00;4.00;;;;;11.49;70.07;98186.69;6274431;20;2751472;-48
2024/04/17 08:57:01;;;;;;;;;4.00;4.00;;;;;11.78;69.52;98178.66;6277238;20;2742057;-47
2024/04/17 08:59:28;;;;;;;;;4.00;4.00;;;;;11.45;69.05;98174.47;6269719;20;2741977;-47
2024/04/17 09:01:59;;;;;;;;;5.00;5.00;;;;;11.08;69.18;98181.28;6273969;20;2745107;-48
2024/04/17 09:04:28;;;;;;;;;5.00;5.00;;;;;11.54;69.94;98179.91;6273228;20;2744071;-49
2024/04/17 09:06:55;;;;;;;;;5.00;5.00;;;;;11.31;70.78;98176.56;6275551;20;2745118;-46
2024/04/17 09:09:23;;;;;;;;;3.50;3.50;;;;;11.20;72.16;98174.84;6272402;20;2752393;-47
2024/04/17 09:11:53;;;;;;;;;3.80;3.80;;;;;11.19;70.80;98178.53;6315233;20;2475350;-49
2024/04/17 09:14:20;;;;;;;;;3.00;3.00;;;;;11.31;72.38;98181.94;6306033;20;2741971;-45
2024/04/17 09:16:46;;;;;;;;;5.00;5.00;;;;;11.60;70.06;98175.81;6275188;20;2735741;-50
2024/04/17 09:19:13;;;;;;;;;5.00;5.00;;;;;11.58;70.15;98183.16;6271993;20;2741954;-48
2024/04/17 09:21:40;;;;;;;;;6.00;4.00;;;;;11.63;69.60;98187.13;6274050;20;2751444;-48
2024/04/17 09:24:08;;;;;;;;;4.00;4.00;;;;;11.78;65.54;98187.59;6285723;20;2748236;-47
2024/04/17 09:26:36;;;;;;;;;5.00;5.00;;;;;11.67;65.69;98186.88;6274260;20;2747191;-45
2024/04/17 09:29:04;;;;;;;;;5.00;3.00;;;;;11.45;66.53;98191.44;6290106;20;1801440;-47
2024/04/17 09:31:31;;;;;;;;;6.00;4.00;;;;;11.60;67.26;98190.09;6311598;20;2737806;-46
2024/04/17 09:34:01;;;;;;;;;5.00;4.00;;;;;11.89;68.40;98197.38;6277769;20;2746218;-47
2024/04/17 09:36:28;;;;;;;;;3.50;3.50;;;;;12.16;65.72;98187.78;6279836;20;2756579;-47
2024/04/17 09:38:55;;;;;;;;;4.00;4.00;;;;;12.20;67.40;98186.53;6278792;20;2746143;-46
2024/04/17 09:41:23;;;;;;;;;4.00;4.00;;;;;11.63;67.69;98180.91;6281050;20;2743020;-46
2024/04/17 09:43:57;;;;;;;;;3.00;3.00;;;;;11.42;69.23;98179.13;6278567;20;2741954;-46
2024/04/17 09:46:27;;;;;;;;;2.50;2.50;;;;;11.69;67.50;98187.56;6277423;20;2742991;-48
2024/04/17 09:48:56;;;;;;;;;5.00;5.00;;;;;12.08;66.77;98180.41;6279403;20;2748647;-46
2024/04/17 09:51:26;;;;;;;;;3.00;3.00;;;;;12.38;63.74;98187.50;6279052;20;2748304;-49
2024/04/17 09:54:02;;;;;;;;;7.00;5.00;;;;;12.28;63.30;98184.81;6278322;20;2750293;-45
2024/04/17 09:56:30;;;;;;;;;3.00;3.00;;;;;12.60;64.61;98170.19;6277000;20;2751490;-45
2024/04/17 09:58:58;;;;;;;;;4.00;4.00;;;;;12.34;63.37;98178.00;6277446;20;2749356;-45
2024/04/17 10:01:26;;;;;;;;;4.00;3.00;;;;;13.16;61.77;98172.03;6293898;20;1814897;-46
2024/04/17 10:03:54;;;;;;;;;4.00;4.00;;;;;12.77;64.76;98165.03;6308482;20;2754881;-45
2024/04/17 10:06:23;;;;;;;;;4.00;4.00;;;;;12.35;65.21;98165.38;6289449;20;2633756;-46
2024/04/17 10:08:53;;;;;;;;;4.00;4.00;;;;;12.48;65.66;98166.81;6276447;20;2746271;-46
2024/04/17 10:11:20;;;;;;;;;4.00;4.00;;;;;12.36;66.35;98164.41;6256064;20;2742156;-47
2024/04/17 10:13:50;;;;;;;;;5.00;4.00;;;;;12.38;67.68;98160.59;6256248;20;2748247;-49
2024/04/17 10:16:17;;;;;;;;;4.00;4.00;;;;;12.50;65.94;98163.97;6279358;20;2742003;-45
2024/04/17 10:18:45;;;;;;;;;1.00;1.00;;;;;12.39;65.78;98161.44;6279011;20;2727446;-46
2024/04/17 10:21:23;;;;;;;;;6.00;5.00;;;;;12.61;64.60;98166.50;6280908;20;2748207;-43
2024/04/17 10:24:07;;;;;;;;;4.00;4.00;;;;;12.33;65.30;98162.00;6276034;20;2743007;-46
2024/04/17 10:26:47;;;;;;;;;4.00;4.00;;;;;12.64;61.19;98160.00;6278215;20;2747187;-47
2024/04/17 10:29:29;;;;;;;;;5.00;5.00;;;;;11.65;62.69;98158.25;6274508;20;2734747;-46
2024/04/17 10:32:13;;;;;;;;;3.50;3.50;;;;;12.32;65.94;98157.59;6279161;20;2750308;-45
2024/04/17 10:34:49;;;;;;;;;7.00;3.00;;;;;12.34;64.22;98164.56;6274461;20;2756622;-50
2024/04/17 10:37:18;;;;;;;;;3.00;3.00;;;;;12.27;62.67;98163.44;6278827;20;2741059;-48
2024/04/17 10:39:46;;;;;;;;;3.00;3.00;;;;;11.95;63.30;98159.16;6275561;20;2743177;-49
2024/04/17 10:42:18;;;;;;;;;6.50;4.50;;;;;12.09;63.54;98160.59;6278412;20;2745117;-48
2024/04/17 10:44:51;;;;;;;;;4.00;4.00;;;;;12.14;62.80;98157.47;6278133;20;2748827;-46
2024/04/17 10:47:28;;;;;;;;;2.00;2.00;;;;;12.25;61.60;98155.50;6279419;20;2733591;-46
2024/04/17 10:50:02;;;;;;;;;2.00;2.00;;;;;12.45;60.92;98158.16;6275055;20;2750343;-47
2024/04/17 10:52:32;;;;;;;;;3.50;3.50;;;;;12.54;59.87;98148.38;6279575;20;2749342;-50
2024/04/17 10:55:02;;;;;;;;;3.00;3.00;;;;;12.80;59.61;98154.00;6276778;20;2752453;-46
2024/04/17 10:57:32;;;;;;;;;2.00;2.00;;;;;13.22;56.85;98145.44;6277755;20;2739865;-47
2024/04/17 11:00:00;;;;;;;;;3.00;3.00;;;;;13.12;58.45;98151.75;6278831;20;2727363;-47
2024/04/17 11:02:28;;;;;;;;;2.00;2.00;;;;;13.23;55.61;98145.31;6277589;20;2744223;-51
2024/04/17 11:04:55;;;;;;;;;2.00;2.00;;;;;12.77;57.36;98149.75;6277854;20;2752400;-46
2024/04/17 11:07:22;;;;;;;;;3.00;3.00;;;;;13.13;57.09;98147.19;6279661;20;2727507;-49
2024/04/17 11:09:49;;;;;;;;;2.00;2.00;;;;;13.42;56.23;98148.94;6275631;20;2747585;-45
2024/04/17 11:12:18;;;;;;;;;3.00;3.00;;;;;13.44;56.47;98150.47;6277890;20;2743055;-47